Time;durP1;ratioP1;P1;durP2;ratioP2;P2;SDS_P1;SDS_P2;PMS_P1;PMS_P2;Temp;Humidity;BMP_temperature;BMP_pressure;BME280_temperature;BME280_humidity;BME280_pressure;Samples;Min_cycle;Max_cycle;Signal;HPM_P1;HPM_P2
2022/09/30 00:01:47;;;;;;;13.30;7.63;;;18.80;98.30;;;18.82;69.70;97945.84;5073624;28;20054;-76
2022/09/30 00:04:16;;;;;;;13.20;7.53;;;18.80;98.20;;;18.82;69.79;97951.34;5093194;28;20038;-75
2022/09/30 00:06:43;;;;;;;14.05;8.43;;;18.90;98.30;;;18.77;71.14;97945.31;5083182;28;20048;-75
2022/09/30 00:09:11;;;;;;;15.15;8.55;;;18.90;98.50;;;18.82;71.31;97942.31;5085212;28;20725;-76
2022/09/30 00:11:38;;;;;;;17.48;8.23;;;18.80;98.50;;;18.80;70.68;97936.34;5102368;28;20673;-76
2022/09/30 00:14:05;;;;;;;14.55;7.25;;;18.80;98.40;;;18.81;70.07;97943.47;5086284;28;20032;-76
2022/09/30 00:16:33;;;;;;;12.68;6.90;;;18.90;98.30;;;18.82;69.88;97943.09;5085228;28;20063;-76
2022/09/30 00:18:59;;;;;;;11.38;7.53;;;18.90;98.30;;;18.85;69.47;97941.59;5087078;28;20118;-76
2022/09/30 00:21:27;;;;;;;13.90;6.90;;;18.90;98.20;;;18.80;70.36;97930.88;5085968;28;20055;-76
2022/09/30 00:23:53;;;;;;;14.05;8.15;;;18.90;98.30;;;18.82;70.95;97926.63;5068230;28;20394;-76
2022/09/30 00:26:21;;;;;;;15.13;8.88;;;18.90;98.50;;;18.80;70.97;97931.69;5090380;28;20118;-76
2022/09/30 00:28:55;;;;;;;12.38;7.18;;;18.80;98.50;;;18.83;70.22;97935.69;5068724;28;20039;-76
2022/09/30 00:31:23;;;;;;;12.02;7.80;;;18.80;98.30;;;18.82;69.58;97932.13;5069103;28;20519;-76
2022/09/30 00:34:10;;;;;;;13.02;7.55;;;18.80;98.30;;;18.82;69.67;97934.84;5067924;28;20101;-76
2022/09/30 00:36:44;;;;;;;14.40;7.55;;;18.90;98.30;;;18.81;69.59;97930.53;5073767;28;20055;-76
2022/09/30 00:39:24;;;;;;;16.10;7.75;;;18.90;98.20;;;18.84;70.54;97929.03;5085116;28;20109;-76
2022/09/30 00:41:57;;;;;;;;;;;18.90;98.40;;;18.82;70.94;97940.34;5092186;28;20114;-76
2022/09/30 00:44:50;;;;;;;14.10;8.10;;;18.90;98.50;;;18.81;70.18;97938.78;5087208;28;19976;-76
2022/09/30 00:48:00;;;;;;;10.52;7.43;;;18.80;98.30;;;18.84;69.71;97935.31;5098871;28;20035;-76
2022/09/30 00:50:41;;;;;;;16.38;8.23;;;18.90;98.20;;;18.83;69.56;97936.47;5104502;28;20050;-76
2022/09/30 00:53:08;;;;;;;15.30;7.00;;;18.90;98.10;;;18.83;69.72;97936.47;5100349;28;20114;-76
2022/09/30 00:56:00;;;;;;;13.45;7.60;;;18.90;98.20;;;18.80;70.52;97939.94;5102697;28;20279;-76
2022/09/30 00:58:38;;;;;;;15.15;6.97;;;18.90;98.40;;;18.83;70.83;97947.47;5103936;28;20043;-76
2022/09/30 01:01:04;;;;;;;10.68;7.50;;;18.90;98.50;;;18.83;69.74;97950.22;5100131;28;20060;-76
2022/09/30 01:03:44;;;;;;;10.57;6.32;;;18.90;98.20;;;18.84;69.38;97954.56;5087896;28;20463;-76
2022/09/30 01:06:10;;;;;;;18.02;8.18;;;18.90;98.20;;;18.83;69.38;97952.97;5058796;28;20364;-76
2022/09/30 01:08:37;;;;;;;14.30;7.53;;;18.90;98.10;;;18.84;69.13;97960.03;5076533;28;20036;-76
2022/09/30 01:11:03;;;;;;;12.35;7.90;;;18.90;98.10;;;18.83;70.41;97957.66;5090494;28;20038;-76
2022/09/30 01:13:30;;;;;;;11.35;6.85;;;18.90;98.30;;;18.81;70.53;97947.00;5090519;28;20599;-76
2022/09/30 01:16:27;;;;;;;11.63;7.32;;;18.90;98.30;;;18.80;70.18;97937.19;5089513;28;20045;-76
2022/09/30 01:19:17;;;;;;;10.30;6.68;;;18.90;98.20;;;18.82;69.58;97937.59;5084024;28;20040;-76
2022/09/30 01:22:05;;;;;;;9.85;6.53;;;18.90;98.10;;;18.85;69.14;97945.19;5100820;28;20039;-75
2022/09/30 01:25:14;;;;;;;11.00;7.20;;;18.90;98.00;;;18.82;69.20;97951.34;5096359;28;20109;-76
2022/09/30 01:28:05;;;;;;;10.45;6.45;;;18.90;98.00;;;18.84;70.24;97953.75;5099627;28;20483;-76
2022/09/30 01:31:03;;;;;;;12.75;6.65;;;18.90;98.30;;;18.84;70.46;97954.56;5100021;28;20488;-76
2022/09/30 01:33:50;;;;;;;8.52;6.28;;;18.90;98.30;;;18.82;69.81;97950.56;5096708;28;20134;-76
2022/09/30 01:36:24;;;;;;;10.55;6.40;;;18.90;98.10;;;18.85;69.26;97956.16;5102193;28;20044;-76
2022/09/30 01:39:33;;;;;;;12.82;6.68;;;19.00;98.10;;;18.85;69.26;97961.66;5106604;28;20107;-76
2022/09/30 01:42:35;;;;;;;11.68;6.90;;;18.90;98.00;;;18.89;69.75;97958.22;5073427;28;20112;-76
2022/09/30 01:45:06;;;;;;;9.73;6.10;;;18.90;98.10;;;18.81;70.11;97963.50;5099738;28;20068;-76
2022/09/30 01:48:27;;;;;;;9.50;6.65;;;19.00;98.30;;;18.83;70.08;97958.47;5101314;28;20047;-76
2022/09/30 01:51:07;;;;;;;10.80;6.60;;;19.00;98.20;;;18.83;69.23;97972.19;5086251;28;20052;-76
2022/09/30 01:53:41;;;;;;;8.82;5.72;;;18.90;98.00;;;18.86;68.93;97976.19;5072770;28;20062;-76
2022/09/30 01:56:26;;;;;;;11.07;5.60;;;19.00;98.00;;;18.86;69.03;97974.25;5089381;28;20121;-76
2022/09/30 01:58:56;;;;;;;14.10;6.68;;;19.00;97.90;;;18.83;69.92;97963.97;5089512;28;20051;-76
2022/09/30 02:01:52;;;;;;;8.38;5.32;;;19.00;98.20;;;18.86;69.98;97967.94;5065999;28;20135;-76
2022/09/30 02:04:37;;;;;;;14.82;6.72;;;19.00;98.20;;;18.85;69.60;97966.34;5071299;28;20048;-76
2022/09/30 02:07:07;;;;;;;9.00;6.28;;;19.00;98.40;;;18.85;69.27;97967.16;5070947;28;20095;-76
2022/09/30 02:09:55;;;;;;;6.72;5.60;;;18.90;98.00;;;18.84;68.98;97970.25;5087629;28;20375;-76
2022/09/30 02:12:23;;;;;;;10.63;5.82;;;18.90;97.90;;;18.84;69.07;97970.25;5071404;28;20163;-76
2022/09/30 02:15:02;;;;;;;13.73;5.93;;;19.00;97.90;;;18.85;69.92;97964.41;5090525;28;20497;-76
2022/09/30 02:17:42;;;;;;;10.13;6.05;;;19.00;98.20;;;18.86;70.09;97970.69;5092373;28;20043;-76
2022/09/30 02:20:32;;;;;;;9.02;5.50;;;19.00;98.20;;;18.86;69.62;97967.94;5082909;28;20040;-76
2022/09/30 02:23:13;;;;;;;7.85;5.30;;;19.00;98.10;;;18.90;68.87;97968.03;5091908;28;20077;-76
2022/09/30 02:25:48;;;;;;;8.32;5.25;;;19.00;98.00;;;18.85;69.21;97969.09;5092921;28;20044;-76
2022/09/30 02:28:25;;;;;;;12.38;6.45;;;19.00;97.90;;;18.86;68.98;97967.94;5080537;28;20131;-76
2022/09/30 02:30:54;;;;;;;8.43;5.82;;;19.00;97.90;;;18.85;69.51;97960.84;5077175;28;20072;-76
2022/09/30 02:33:33;;;;;;;10.43;6.10;;;18.90;98.00;;;18.85;69.86;97963.59;5075482;28;20039;-76
2022/09/30 02:36:34;;;;;;;9.93;5.72;;;19.00;98.20;;;18.84;69.87;97965.53;5108080;28;20114;-77
2022/09/30 02:39:06;;;;;;;7.80;6.05;;;19.00;98.20;;;18.86;69.25;97962.47;5093807;28;20076;-77
2022/09/30 02:41:39;;;;;;;8.05;5.88;;;19.00;97.90;;;18.89;68.79;97970.00;5063643;28;20032;-77
2022/09/30 02:44:05;;;;;;;9.80;6.38;;;19.00;97.90;;;18.86;68.91;97968.75;5091423;27;20035;-77
2022/09/30 02:46:50;;;;;;;10.48;6.10;;;19.00;97.90;;;18.87;69.37;97969.53;5106376;28;20406;-77
2022/09/30 02:49:39;;;;;;;5.63;4.47;;;19.00;98.00;;;18.85;69.75;97964.41;5107979;28;20389;-76
2022/09/30 02:52:25;;;;;;;9.15;5.53;;;19.00;98.10;;;18.86;69.67;97967.94;5112455;28;20461;-77
2022/09/30 02:55:16;;;;;;;6.63;5.18;;;19.00;98.00;;;18.86;69.16;97960.50;5090764;28;20043;-76
2022/09/30 02:58:11;;;;;;;11.20;5.65;;;19.00;97.90;;;18.85;68.82;97960.84;5107673;28;20054;-76
2022/09/30 03:00:38;;;;;;;8.90;5.82;;;19.00;97.90;;;18.87;68.88;97964.03;5076462;28;20056;-76
2022/09/30 03:03:11;;;;;;;10.25;5.70;;;19.00;97.90;;;18.86;69.54;97962.47;5075234;28;20035;-76
2022/09/30 03:05:37;;;;;;;8.05;5.75;;;19.00;98.10;;;18.84;70.10;97959.25;5103167;28;20429;-76
2022/09/30 03:08:03;;;;;;;8.45;5.60;;;19.00;98.20;;;18.89;69.58;97967.25;5055149;28;20036;-76
2022/09/30 03:10:30;;;;;;;8.60;5.35;;;19.00;98.10;;;18.89;68.93;97963.72;5079903;28;20031;-76
2022/09/30 03:13:34;;;;;;;7.18;5.03;;;19.00;97.90;;;18.87;68.70;97966.78;5091949;28;20052;-76
2022/09/30 03:16:12;;;;;;;8.05;5.38;;;19.00;97.90;;;18.85;68.92;97969.09;5089173;28;20066;-76
2022/09/30 03:19:08;;;;;;;9.48;5.45;;;19.00;97.90;;;18.85;69.60;97978.16;5103449;28;20081;-77
2022/09/30 03:22:00;;;;;;;7.57;5.18;;;19.00;98.00;;;18.87;69.91;97975.81;5102800;28;20066;-76
2022/09/30 03:24:30;;;;;;;8.60;4.88;;;19.00;98.10;;;18.87;69.61;97975.81;5108200;28;20134;-76
2022/09/30 03:27:55;;;;;;;7.07;4.53;;;19.00;98.00;;;18.87;68.95;97972.28;5109028;28;20125;-76
2022/09/30 03:30:25;;;;;;;7.97;5.20;;;19.00;97.90;;;18.86;68.85;97976.19;5039735;28;20485;-76
2022/09/30 03:33:12;;;;;;;8.35;5.45;;;19.00;97.90;;;18.86;68.78;97976.19;5084428;28;20056;-76
2022/09/30 03:35:58;;;;;;;7.10;5.03;;;19.00;97.90;;;18.85;69.42;97972.66;5071093;28;20048;-76
2022/09/30 03:39:05;;;;;;;9.02;5.53;;;19.00;98.00;;;18.86;69.82;97974.25;5060376;28;20032;-77
2022/09/30 03:42:00;;;;;;;6.25;5.03;;;19.00;98.10;;;18.87;69.18;97980.53;5101900;28;20064;-77
2022/09/30 03:44:40;;;;;;;8.75;5.18;;;19.00;97.90;;;18.86;68.74;97979.72;5105327;28;20417;-77
2022/09/30 03:47:12;;;;;;;6.90;5.00;;;19.00;97.90;;;18.88;68.74;97982.16;5055788;28;20044;-76
2022/09/30 03:49:50;;;;;;;8.50;4.72;;;19.00;97.90;;;18.88;68.69;97984.91;5072623;28;20387;-76
2022/09/30 03:52:16;;;;;;;7.18;5.43;;;19.00;97.80;;;18.88;69.33;97984.91;5087161;28;20126;-77
2022/09/30 03:54:49;;;;;;;5.82;4.20;;;19.00;97.90;;;18.84;67.96;97984.78;5053925;28;20398;-76
2022/09/30 03:57:15;;;;;;;5.45;4.70;;;19.00;97.50;;;18.87;67.46;97986.81;5075503;28;20039;-76
2022/09/30 03:59:42;;;;;;;8.07;4.88;;;19.10;97.50;;;18.84;67.27;97983.97;5090914;28;20046;-76
2022/09/30 04:02:09;;;;;;;8.20;5.05;;;19.00;97.30;;;18.87;66.86;97992.31;5092836;28;20047;-76
2022/09/30 04:04:35;;;;;;;4.82;3.65;;;19.00;97.40;;;18.89;68.08;97996.69;5094191;28;20042;-76
2022/09/30 04:07:01;;;;;;;7.10;4.95;;;19.00;97.70;;;18.83;68.52;97994.19;5091151;28;20375;-76
2022/09/30 04:09:28;;;;;;;7.90;4.82;;;19.00;97.70;;;18.84;67.90;98000.47;5103326;28;20486;-76
2022/09/30 04:11:54;;;;;;;8.25;4.57;;;19.00;97.60;;;18.87;66.69;97992.31;5094079;28;20048;-76
2022/09/30 04:14:20;;;;;;;7.05;4.85;;;19.00;97.30;;;18.91;66.45;97992.44;5091034;28;20063;-76
2022/09/30 04:16:46;;;;;;;5.95;4.15;;;19.00;97.20;;;18.91;66.30;97992.44;5101899;28;20139;-76
2022/09/30 04:19:12;;;;;;;7.63;4.45;;;19.00;97.10;;;18.92;66.93;97994.03;5086339;28;20031;-76
2022/09/30 04:21:38;;;;;;;6.72;4.22;;;19.10;97.40;;;18.94;67.21;97997.22;5101439;28;20351;-76
2022/09/30 04:24:05;;;;;;;6.18;4.80;;;19.10;97.50;;;18.98;67.17;97997.31;5086952;28;20088;-76
2022/09/30 04:26:31;;;;;;;5.82;4.30;;;19.10;97.50;;;18.96;66.10;98002.38;5100295;28;20382;-76
2022/09/30 04:28:57;;;;;;;6.43;4.88;;;19.00;97.20;;;18.92;66.13;97998.72;5103001;28;20050;-76
2022/09/30 04:31:23;;;;;;;4.82;3.78;;;19.00;97.10;;;18.94;65.78;98002.72;5104844;28;20040;-76
2022/09/30 04:33:49;;;;;;;6.63;4.35;;;19.00;97.10;;;18.95;65.78;98009.00;5088405;28;20532;-76
2022/09/30 04:36:16;;;;;;;5.15;4.32;;;19.10;97.20;;;18.97;66.14;98015.75;5100877;28;20490;-76
2022/09/30 04:38:42;;;;;;;6.47;4.50;;;19.10;97.30;;;18.99;66.30;98018.97;5100694;28;20706;-76
2022/09/30 04:41:16;;;;;;;8.40;3.75;;;19.10;97.40;;;19.01;66.14;98013.94;5055602;28;20039;-76
2022/09/30 04:43:45;;;;;;;5.85;4.22;;;19.10;97.30;;;19.01;65.51;98018.63;5075754;28;20487;-76
2022/09/30 04:46:15;;;;;;;5.22;3.75;;;19.10;97.20;;;19.02;65.40;98007.28;5067639;28;20494;-76
2022/09/30 04:48:44;;;;;;;4.82;3.88;;;19.10;97.20;;;19.04;65.14;98012.44;5088435;28;20179;-76
2022/09/30 04:51:20;;;;;;;6.10;4.05;;;19.10;97.10;;;19.06;65.36;98010.13;5086962;28;20039;-76
2022/09/30 04:53:47;;;;;;;5.07;3.75;;;19.10;97.10;;;19.08;65.26;98013.31;5103759;28;20046;-76
2022/09/30 04:56:15;;;;;;;7.20;4.97;;;19.10;97.20;;;19.09;65.29;98010.22;5086976;28;20047;-76
2022/09/30 04:58:42;;;;;;;7.80;4.65;;;19.10;97.20;;;19.11;65.16;98012.66;5057302;28;20048;-76
2022/09/30 05:01:12;;;;;;;5.55;4.10;;;19.10;97.20;;;19.13;64.88;98015.03;5089496;28;20384;-76
2022/09/30 05:03:38;;;;;;;4.22;3.80;;;19.20;97.10;;;19.14;64.49;98011.16;5087595;28;20036;-76
2022/09/30 05:06:05;;;;;;;5.18;4.25;;;19.20;97.10;;;19.14;64.60;98013.91;5061913;28;20043;-76
2022/09/30 05:08:32;;;;;;;4.32;3.25;;;19.20;97.10;;;19.17;64.62;98019.47;5068403;28;20382;-76
2022/09/30 05:11:01;;;;;;;6.55;3.90;;;19.20;97.10;;;19.22;64.52;98007.44;5090307;28;20063;-76
2022/09/30 05:13:33;;;;;;;7.22;4.10;;;19.20;97.20;;;19.21;64.70;98023.16;5067325;28;20042;-76
2022/09/30 05:15:59;;;;;;;4.93;4.07;;;19.20;97.20;;;19.20;64.17;98020.72;5084443;28;20049;-76
2022/09/30 05:18:25;;;;;;;6.85;4.70;;;19.20;97.10;;;19.24;64.27;98016.16;5065469;28;20036;-76
2022/09/30 05:20:52;;;;;;;3.80;2.97;;;19.20;97.10;;;19.25;64.06;98029.53;5089970;28;20539;-76
2022/09/30 05:23:18;;;;;;;4.88;3.92;;;19.20;97.00;;;19.28;63.90;98033.53;5088501;28;20036;-76
2022/09/30 05:25:45;;;;;;;4.20;3.40;;;19.20;97.00;;;19.31;64.02;98032.84;5066488;28;20482;-76
2022/09/30 05:28:12;;;;;;;3.83;3.42;;;19.30;97.20;;;19.36;63.97;98032.59;5103872;28;20040;-78
2022/09/30 05:30:40;;;;;;;3.80;3.15;;;19.30;97.20;;;19.33;64.05;98037.97;5071305;28;20400;-78
2022/09/30 05:33:06;;;;;;;4.97;3.65;;;19.30;97.10;;;19.33;64.13;98036.03;5086042;28;20491;-77
2022/09/30 05:35:33;;;;;;;6.15;3.50;;;19.30;97.10;;;19.35;63.76;98036.47;5089561;28;20512;-78
2022/09/30 05:38:00;;;;;;;5.60;4.10;;;19.30;97.00;;;19.33;63.77;98037.97;5082995;28;20092;-78
2022/09/30 05:40:26;;;;;;;6.15;3.10;;;19.40;97.00;;;19.42;63.56;98041.38;5069189;28;20044;-80
2022/09/30 05:42:52;;;;;;;4.57;3.53;;;19.30;97.00;;;19.42;63.76;98044.13;5052884;28;20495;-77
2022/09/30 05:45:18;;;;;;;4.30;3.60;;;19.40;97.20;;;19.43;63.97;98042.97;5096114;28;20047;-76
2022/09/30 05:47:51;;;;;;;4.88;3.30;;;19.40;97.20;;;19.44;63.82;98036.34;5096646;28;20105;-79
2022/09/30 05:50:17;;;;;;;5.40;3.65;;;19.40;97.10;;;19.45;63.47;98038.72;5065932;28;20043;-79
2022/09/30 05:52:44;;;;;;;3.55;3.25;;;19.40;97.00;;;19.48;63.38;98042.72;5080512;28;20832;-78
2022/09/30 05:55:10;;;;;;;5.60;4.13;;;19.50;97.00;;;19.45;63.49;98037.94;5050620;28;20447;-79
2022/09/30 05:57:36;;;;;;;9.65;4.18;;;19.40;97.30;;;19.49;63.35;98042.38;5048140;28;20143;-79
2022/09/30 06:00:04;;;;;;;6.15;3.88;;;19.50;97.00;;;19.51;63.31;98036.50;5068305;28;20373;-78
2022/09/30 06:02:31;;;;;;;4.78;3.45;;;19.40;96.90;;;19.55;63.13;98039.38;5062864;28;20367;-79
2022/09/30 06:04:57;;;;;;;5.43;3.50;;;19.50;97.00;;;19.52;63.35;98038.13;5066309;28;20101;-79
2022/09/30 06:07:23;;;;;;;7.80;4.05;;;19.50;97.10;;;19.57;63.54;98042.59;5062917;28;20042;-79
2022/09/30 06:09:52;;;;;;;7.68;4.65;;;19.50;97.20;;;19.55;63.69;98039.38;5098222;28;20044;-79
2022/09/30 06:12:19;;;;;;;5.15;3.67;;;19.50;97.20;;;19.58;63.51;98049.69;5095573;28;20047;-80
2022/09/30 06:14:46;;;;;;;6.40;3.20;;;19.50;97.10;;;19.56;63.46;98044.50;5045838;28;20119;-79
2022/09/30 06:17:12;;;;;;;7.15;4.50;;;19.50;97.20;;;19.62;63.32;98053.34;5049984;28;20158;-79
2022/09/30 06:19:39;;;;;;;8.15;4.35;;;19.50;97.10;;;19.61;63.66;98058.00;5082948;28;20032;-79
2022/09/30 06:22:05;;;;;;;8.55;5.05;;;19.50;97.20;;;19.63;63.76;98052.97;5067844;28;20114;-78
2022/09/30 06:24:31;;;;;;;7.93;4.45;;;19.50;97.20;;;19.62;63.84;98056.88;5098210;28;20066;-78
2022/09/30 06:26:57;;;;;;;7.22;4.45;;;19.60;97.30;;;19.63;64.04;98049.41;5077171;28;20050;-78
2022/09/30 06:29:23;;;;;;;8.65;4.72;;;19.50;97.20;;;19.64;63.75;98051.00;5077126;28;20066;-78
2022/09/30 06:31:49;;;;;;;12.20;4.68;;;19.60;97.30;;;19.64;63.71;98051.00;5065517;28;20052;-79
2022/09/30 06:34:15;;;;;;;5.57;4.28;;;19.60;97.20;;;19.67;63.68;98048.41;5077481;28;20040;-79
2022/09/30 06:36:41;;;;;;;7.95;4.95;;;19.60;97.20;;;19.69;63.84;98054.34;5061435;28;20066;-79
2022/09/30 06:39:07;;;;;;;8.35;4.85;;;19.60;97.30;;;19.69;63.94;98054.34;5063291;28;20473;-79
2022/09/30 06:41:36;;;;;;;9.10;4.82;;;19.70;97.30;;;19.70;64.09;98058.69;5071511;28;20092;-79
2022/09/30 06:44:03;;;;;;;9.32;4.80;;;19.70;97.30;;;19.72;63.73;98053.66;5095893;28;20130;-79
2022/09/30 06:46:29;;;;;;;11.40;4.72;;;19.60;97.20;;;19.72;63.76;98056.41;5062961;28;20047;-77
2022/09/30 06:48:57;;;;;;;6.72;4.22;;;19.60;97.20;;;19.73;63.49;98057.19;5078193;28;20044;-77
2022/09/30 06:51:28;;;;;;;7.47;4.43;;;19.70;97.20;;;19.74;63.71;98056.03;5083336;28;20050;-77
2022/09/30 06:53:55;;;;;;;9.13;4.70;;;19.70;97.20;;;19.76;63.88;98058.44;5066505;28;20550;-77
2022/09/30 06:56:21;;;;;;;13.57;6.05;;;19.70;97.30;;;19.78;63.88;98059.69;5097498;28;20048;-77
2022/09/30 06:58:47;;;;;;;13.80;5.88;;;19.70;97.30;;;19.76;63.79;98061.19;5062519;28;20092;-77
2022/09/30 07:01:13;;;;;;;12.15;5.72;;;19.70;97.30;;;19.77;63.85;98066.34;5084839;28;20052;-77
2022/09/30 07:03:42;;;;;;;8.80;5.22;;;19.70;97.20;;;19.81;63.37;98067.22;5081541;28;20100;-79
2022/09/30 07:06:08;;;;;;;10.45;4.63;;;19.70;97.20;;;19.81;63.39;98067.22;5064980;28;20506;-79
2022/09/30 07:08:35;;;;;;;10.85;5.80;;;19.70;97.10;;;19.85;63.62;98064.59;5082526;28;20036;-80
2022/09/30 07:11:13;;;;;;;10.75;4.70;;;19.80;97.20;;;19.84;63.82;98060.22;5070889;28;20073;-80
2022/09/30 07:13:46;;;;;;;9.32;5.57;;;19.80;97.20;;;19.88;63.27;98074.88;5071799;28;20024;-80
2022/09/30 07:16:13;;;;;;;9.88;5.28;;;19.80;97.30;;;19.86;63.42;98075.22;5071798;28;20427;-80
2022/09/30 07:18:41;;;;;;;11.27;5.35;;;19.80;97.20;;;19.85;63.36;98072.84;5086524;28;20047;-79
2022/09/30 07:21:08;;;;;;;9.93;5.45;;;19.80;97.20;;;19.87;63.18;98071.34;5084367;28;20054;-79
2022/09/30 07:23:35;;;;;;;9.00;4.95;;;19.80;97.10;;;19.88;63.39;98075.69;5070372;28;20541;-79
2022/09/30 07:26:03;;;;;;;7.30;4.38;;;19.80;97.20;;;19.87;63.50;98082.34;5075157;28;20538;-80
2022/09/30 07:28:34;;;;;;;12.25;5.88;;;19.80;97.30;;;19.89;63.68;98085.53;5057578;28;20043;-80
2022/09/30 07:31:16;;;;;;;9.70;5.43;;;19.80;97.30;;;19.87;63.75;98082.34;5060604;28;20067;-80
2022/09/30 07:33:42;;;;;;;;;;;19.80;97.20;;;19.87;63.74;98087.03;5076660;28;20047;-82
2022/09/30 07:36:09;;;;;;;12.18;4.63;;;19.90;97.20;;;19.89;63.82;98088.28;5071292;28;19924;-80
2022/09/30 07:38:38;;;;;;;9.60;4.88;;;19.80;97.20;;;19.89;63.47;98087.50;5070062;28;20039;-79
2022/09/30 07:41:07;;;;;;;6.70;4.40;;;19.90;97.20;;;19.91;63.47;98091.47;5053366;28;20546;-80
2022/09/30 07:43:39;;;;;;;10.07;5.80;;;19.80;97.20;;;19.88;63.53;98089.44;5106192;27;20050;-80
2022/09/30 07:46:16;;;;;;;8.88;5.68;;;19.90;97.30;;;19.89;63.63;98088.28;5086680;28;21196;-80
2022/09/30 07:48:46;;;;;;;13.27;5.72;;;19.90;97.60;;;19.89;63.55;98096.53;5067439;28;20120;-79
2022/09/30 07:51:15;;;;;;;11.30;5.30;;;19.90;97.20;;;19.88;63.46;98094.16;5066712;28;20119;-79
2022/09/30 07:53:44;;;;;;;10.02;4.60;;;19.90;97.20;;;19.89;63.54;98101.25;5083928;28;20058;-79
2022/09/30 07:56:11;;;;;;;11.05;5.07;;;19.90;97.20;;;19.91;63.51;98101.69;5052560;28;20384;-79
2022/09/30 07:58:37;;;;;;;8.82;5.05;;;19.90;97.20;;;19.94;63.67;98103.75;5047287;28;20060;-80
2022/09/30 08:01:05;;;;;;;11.50;5.85;;;19.90;97.30;;;19.92;63.75;98108.78;5069775;28;20052;-79
2022/09/30 08:03:40;;;;;;;12.80;5.53;;;19.90;97.30;;;19.94;63.56;98098.25;5068468;28;20573;-80
2022/09/30 08:06:15;;;;;;;8.63;4.78;;;19.90;97.20;;;19.94;63.50;98103.75;5065562;28;20043;-80
2022/09/30 08:08:45;;;;;;;11.07;5.45;;;19.90;97.20;;;19.93;63.49;98107.66;5083200;28;20036;-80
2022/09/30 08:11:12;;;;;;;9.95;5.75;;;19.90;97.20;;;19.92;63.55;98097.78;5069257;28;20055;-80
2022/09/30 08:13:38;;;;;;;11.88;6.05;;;19.90;97.10;;;19.95;63.60;98105.34;5049033;28;20046;-80
2022/09/30 08:16:05;;;;;;;11.02;4.78;;;19.90;97.30;;;19.95;63.64;98105.34;5098063;28;20043;-80
2022/09/30 08:18:31;;;;;;;10.45;5.85;;;19.90;97.30;;;19.96;63.82;98106.94;5094465;28;20141;-79
2022/09/30 08:21:03;;;;;;;7.53;4.50;;;20.00;97.30;;;19.96;63.56;98101.44;5059915;28;20043;-79
2022/09/30 08:23:29;;;;;;;9.88;5.55;;;20.00;97.20;;;19.96;63.66;98106.94;5065717;28;20128;-80
2022/09/30 08:26:15;;;;;;;12.20;4.57;;;20.00;97.20;;;19.99;63.38;98108.19;5093893;28;20158;-80
2022/09/30 08:28:42;;;;;;;7.90;4.65;;;20.00;97.10;;;19.98;63.30;98110.16;5069154;28;20048;-80
2022/09/30 08:31:11;;;;;;;17.38;6.53;;;19.90;97.10;;;19.99;63.61;98110.94;5053955;28;20122;-80
2022/09/30 08:33:37;;;;;;;10.05;5.68;;;19.90;97.20;;;19.98;63.72;98114.88;5069374;28;20079;-80
2022/09/30 08:36:23;;;;;;;7.30;5.30;;;20.00;97.30;;;19.97;63.66;98114.03;5086705;28;20043;-80
2022/09/30 08:38:49;;;;;;;12.55;5.65;;;20.00;97.20;;;20.00;63.48;98115.28;5076217;28;20050;-80
2022/09/30 08:41:40;;;;;;;7.82;4.43;;;20.00;97.20;;;19.98;63.42;98110.16;5061207;28;20046;-79
2022/09/30 08:44:42;;;;;;;8.90;5.00;;;20.00;97.10;;;19.99;63.49;98114.50;5102618;28;20071;-79
2022/09/30 08:47:58;;;;;;;7.28;4.78;;;20.00;97.10;;;20.04;63.52;98114.25;5082486;28;20394;-79
2022/09/30 08:51:12;;;;;;;7.40;5.22;;;20.00;97.30;;;20.07;63.22;98112.72;5088020;28;20113;-79
2022/09/30 08:53:41;;;;;;;17.80;5.28;;;20.00;97.20;;;20.09;63.12;98113.97;5083215;28;20128;-79
2022/09/30 08:56:07;;;;;;;9.82;4.97;;;20.00;97.20;;;20.08;62.90;98108.84;5061667;28;20048;-79
2022/09/30 08:58:36;;;;;;;12.15;5.03;;;20.00;97.10;;;20.10;62.83;98118.34;5049183;28;20392;-79
2022/09/30 09:01:34;;;;;;;9.30;4.63;;;20.00;97.10;;;20.10;62.81;98112.84;5077072;28;20044;-79
2022/09/30 09:04:02;;;;;;;13.55;6.00;;;20.00;97.10;;;20.11;62.88;98119.16;5099455;28;20116;-79
2022/09/30 09:06:49;;;;;;;10.07;5.18;;;20.00;97.10;;;20.14;62.87;98124.72;5063614;28;20043;-79
2022/09/30 09:09:45;;;;;;;16.17;6.68;;;20.10;97.20;;;20.12;62.69;98115.22;5091163;28;20036;-79
2022/09/30 09:12:38;;;;;;;12.93;5.63;;;20.00;97.10;;;20.12;62.80;98129.81;5096157;28;20039;-79
2022/09/30 09:15:34;;;;;;;7.75;4.28;;;20.10;97.10;;;20.12;62.75;98132.56;5063926;28;20115;-79
2022/09/30 09:18:40;;;;;;;12.27;6.03;;;20.10;97.10;;;20.12;62.98;98126.25;5066147;28;20057;-79
2022/09/30 09:21:08;;;;;;;8.80;5.07;;;20.10;97.20;;;20.10;63.23;98121.09;5092054;28;20154;-79
2022/09/30 09:23:34;;;;;;;9.13;5.13;;;20.10;97.20;;;20.12;62.90;98124.31;5096485;28;20553;-79
2022/09/30 09:26:00;;;;;;;8.88;5.30;;;20.10;97.10;;;20.11;63.03;98125.44;5067481;28;20046;-79
2022/09/30 09:28:43;;;;;;;7.88;5.13;;;20.10;97.10;;;20.12;62.77;98135.31;5064450;28;20046;-79
2022/09/30 09:31:15;;;;;;;9.73;4.72;;;20.20;97.10;;;20.12;62.70;98132.56;5079870;28;20498;-79
2022/09/30 09:33:42;;;;;;;9.63;5.22;;;20.20;97.10;;;20.14;62.90;98133.00;5062335;28;20051;-78
2022/09/30 09:36:38;;;;;;;12.20;5.20;;;20.20;97.50;;;20.12;63.68;98129.00;5085143;28;20044;-77
2022/09/30 09:39:10;;;;;;;8.52;4.70;;;20.20;97.20;;;20.14;63.29;98126.69;5101428;28;20040;-77
2022/09/30 09:41:58;;;;;;;11.48;5.40;;;20.20;97.20;;;20.13;63.60;98133.34;5091226;28;20049;-77
2022/09/30 09:44:40;;;;;;;12.77;6.65;;;20.20;97.20;;;20.12;63.56;98132.56;5085174;28;20035;-77
2022/09/30 09:47:15;;;;;;;10.07;5.57;;;20.20;97.20;;;20.12;63.58;98129.81;5047087;28;20040;-77
2022/09/30 09:49:56;;;;;;;10.25;5.55;;;20.20;97.20;;;20.11;63.85;98132.91;5062692;28;20116;-77
2022/09/30 09:52:49;;;;;;;11.77;5.77;;;20.20;97.30;;;20.11;64.04;98130.16;5065253;28;20036;-77
2022/09/30 09:55:18;;;;;;;9.30;5.35;;;20.10;97.30;;;20.09;64.59;98133.25;5098776;28;20286;-77
2022/09/30 09:57:44;;;;;;;10.75;5.03;;;20.20;97.40;;;20.12;63.96;98138.06;5081900;28;20044;-77
2022/09/30 10:03:07;;;;;;;7.43;4.82;;;20.20;97.30;;;20.14;64.22;98137.69;5080045;28;20040;-77
2022/09/30 10:05:39;;;;;;;9.45;5.35;;;20.10;97.30;;;20.13;64.16;98139.66;5082940;28;20040;-77
2022/09/30 10:08:17;;;;;;;10.23;6.05;;;20.20;97.40;;;20.15;64.40;98147.59;5061917;28;20388;-77
2022/09/30 10:10:51;;;;;;;14.02;5.40;;;20.20;97.40;;;20.14;64.78;98145.97;5058560;28;20044;-77
2022/09/30 10:13:27;;;;;;;12.02;5.45;;;20.20;97.50;;;20.14;64.36;98151.47;5094902;28;20522;-77
2022/09/30 10:15:54;;;;;;;10.82;6.05;;;20.20;97.40;;;20.12;64.52;98148.25;5089325;28;20044;-77
2022/09/30 10:18:34;;;;;;;10.73;5.30;;;20.20;97.40;;;20.13;64.56;98152.63;5065742;28;20042;-77
2022/09/30 10:21:19;;;;;;;10.73;4.40;;;20.20;97.40;;;20.13;64.49;98150.69;5069243;28;20036;-77
2022/09/30 10:23:45;;;;;;;11.15;5.50;;;20.20;97.40;;;20.15;64.80;98155.84;5083696;28;20162;-77
2022/09/30 10:26:14;;;;;;;10.35;4.97;;;20.20;97.50;;;20.14;64.76;98157.78;5096246;28;20046;-77
2022/09/30 10:29:00;;;;;;;15.25;6.10;;;20.20;97.50;;;20.13;64.70;98158.16;5095555;28;20519;-77
2022/09/30 10:31:37;;;;;;;11.50;5.70;;;20.20;97.40;;;20.16;64.66;98158.22;5068917;28;20475;-77
2022/09/30 10:34:29;;;;;;;7.10;5.07;;;20.20;97.40;;;20.16;64.50;98160.97;5067354;28;20038;-77
2022/09/30 10:36:56;;;;;;;9.73;5.57;;;20.20;97.40;;;20.18;64.43;98157.88;5086878;28;20560;-77
2022/09/30 10:39:34;;;;;;;8.77;5.20;;;20.20;97.40;;;20.17;64.84;98165.34;5066910;28;20062;-77
2022/09/30 10:42:20;;;;;;;12.00;5.80;;;20.30;97.50;;;20.16;65.21;98173.94;5071019;28;20040;-77
2022/09/30 10:44:57;;;;;;;14.23;5.07;;;20.30;97.60;;;20.19;65.08;98164.19;5087852;28;20067;-77
2022/09/30 10:47:25;;;;;;;8.50;5.05;;;20.30;97.50;;;20.20;64.94;98171.28;5070860;28;20086;-77
2022/09/30 10:50:04;;;;;;;9.98;4.90;;;20.30;97.50;;;20.20;64.85;98177.63;5099545;28;20048;-77
2022/09/30 10:52:46;;;;;;;11.32;5.85;;;20.30;97.50;;;20.21;64.69;98172.91;5098527;28;20063;-77